Time;durP1;ratioP1;P1;durP2;ratioP2;P2;SDS_P1;SDS_P2;PMS_P1;PMS_P2;Temp;Humidity;BMP_temperature;BMP_pressure;BME280_temperature;BME280_humidity;BME280_pressure;Samples;Min_cycle;Max_cycle;Signal;HPM_P1;HPM_P2
2021/06/22 00:00:10;;;;;;;6.00;4.10;;;;;;;24.90;55.50;100376.72;699736;28;43702;-62
2021/06/22 00:00:36;;;;;;;6.13;4.20;;;;;;;24.91;55.66;100380.31;697333;28;113518;-62
2021/06/22 00:00:57;;;;;;;6.28;4.40;;;;;;;24.89;55.17;100374.22;699093;28;91040;-62
2021/06/22 00:01:19;;;;;;;5.43;4.70;;;;;;;24.90;55.50;100375.91;701089;28;43256;-62
2021/06/22 00:01:40;;;;;;;4.97;4.25;;;;;;;24.90;55.66;100381.44;700403;28;67487;-62
2021/06/22 00:02:01;;;;;;;5.32;4.32;;;;;;;24.90;55.45;100381.44;701950;28;21620;-62
2021/06/22 00:02:22;;;;;;;7.00;4.47;;;;;;;24.91;55.50;100383.09;701929;28;23495;-62
2021/06/22 00:02:43;;;;;;;5.55;4.50;;;;;;;24.92;55.33;100379.19;701670;28;21638;-62
2021/06/22 00:03:06;;;;;;;5.53;4.55;;;;;;;24.91;55.46;100380.31;702336;28;15349;-62
2021/06/22 00:03:28;;;;;;;4.68;4.20;;;;;;;24.88;55.79;100384.47;700989;28;45251;-62
2021/06/22 00:03:49;;;;;;;5.25;4.10;;;;;;;24.89;55.77;100388.91;699810;28;69389;-62
2021/06/22 00:04:10;;;;;;;6.97;4.35;;;;;;;24.88;55.94;100387.22;701236;28;23414;-62
2021/06/22 00:04:31;;;;;;;7.05;4.72;;;;;;;24.87;55.63;100388.31;701509;28;23692;-62
2021/06/22 00:04:53;;;;;;;6.35;4.85;;;;;;;24.86;55.76;100389.47;701774;28;22565;-62
2021/06/22 00:05:17;;;;;;;4.80;4.35;;;;;;;24.86;55.56;100383.09;700703;28;33351;-62
2021/06/22 00:05:38;;;;;;;5.00;4.50;;;;;;;24.87;55.78;100388.31;700474;28;69345;-62
2021/06/22 00:05:59;;;;;;;4.95;4.45;;;;;;;24.88;55.79;100383.66;701528;28;23414;-62
2021/06/22 00:06:21;;;;;;;4.97;4.47;;;;;;;24.88;55.87;100381.72;702544;28;10057;-62
2021/06/22 00:06:42;;;;;;;4.80;4.32;;;;;;;24.87;55.67;100387.50;698176;28;37913;-62
2021/06/22 00:07:06;;;;;;;4.70;4.30;;;;;;;24.86;55.81;100381.16;696379;28;90042;-62
2021/06/22 00:07:27;;;;;;;5.43;4.57;;;;;;;24.87;55.73;100388.31;698493;28;22532;-62
2021/06/22 00:07:50;;;;;;;5.95;4.53;;;;;;;24.88;55.67;100383.66;698859;28;22385;-62
2021/06/22 00:08:11;;;;;;;5.55;4.30;;;;;;;24.89;55.99;100383.38;697223;28;67533;-62
2021/06/22 00:08:32;;;;;;;5.00;4.57;;;;;;;24.89;55.72;100385.28;700081;28;22545;-62
2021/06/22 00:08:55;;;;;;;5.45;4.90;;;;;;;24.85;55.95;100376.75;702398;28;1213;-62
2021/06/22 00:09:16;;;;;;;5.10;4.60;;;;;;;24.86;55.52;100386.69;701821;28;24739;-62
2021/06/22 00:09:38;;;;;;;5.00;4.60;;;;;;;24.84;55.62;100386.13;702049;28;22411;-62
2021/06/22 00:09:59;;;;;;;5.47;4.63;;;;;;;24.83;56.23;100379.78;700910;28;46404;-62
2021/06/22 00:10:22;;;;;;;5.28;4.78;;;;;;;24.82;55.76;100389.16;699658;28;1880;-62
2021/06/22 00:10:43;;;;;;;6.30;4.53;;;;;;;24.80;56.09;100380.34;696445;28;61368;-62
2021/06/22 00:11:06;;;;;;;6.63;4.75;;;;;;;24.82;55.90;100391.94;699417;28;19853;-62
2021/06/22 00:11:27;;;;;;;5.32;4.75;;;;;;;24.80;55.92;100385.06;697768;28;46453;-62
2021/06/22 00:11:48;;;;;;;5.28;4.78;;;;;;;24.80;55.91;100383.09;698800;28;23815;-62
2021/06/22 00:12:09;;;;;;;5.63;4.60;;;;;;;24.80;56.22;100377.59;698742;28;46323;-62
2021/06/22 00:12:31;;;;;;;5.53;4.65;;;;;;;24.79;56.10;100381.44;700476;28;23404;-62
2021/06/22 00:12:53;;;;;;;6.38;4.78;;;;;;;24.79;55.96;100386.97;701517;28;37217;-61
2021/06/22 00:13:14;;;;;;;5.57;4.72;;;;;;;24.78;56.24;100385.34;700731;28;39749;-62
2021/06/22 00:13:37;;;;;;;7.35;4.80;;;;;;;24.77;56.16;100386.44;701964;28;22368;-63
2021/06/22 00:13:58;;;;;;;6.75;4.53;;;;;;;24.76;55.98;100386.72;698964;28;45283;-62
2021/06/22 00:14:20;;;;;;;4.88;4.40;;;;;;;24.73;56.29;100390.84;701422;28;23429;-62
2021/06/22 00:14:41;;;;;;;6.45;4.53;;;;;;;24.73;56.24;100385.31;700628;28;45287;-62
2021/06/22 00:15:03;;;;;;;5.72;4.78;;;;;;;24.72;56.34;100393.91;701569;28;22374;-62
2021/06/22 00:15:27;;;;;;;5.22;4.78;;;;;;;24.71;56.38;100393.06;701090;28;44313;-62
2021/06/22 00:15:48;;;;;;;5.35;4.85;;;;;;;24.72;56.29;100389.22;699557;28;92531;-62
2021/06/22 00:16:09;;;;;;;6.05;4.88;;;;;;;24.72;56.60;100388.38;702226;28;21092;-62
2021/06/22 00:16:30;;;;;;;5.25;4.75;;;;;;;24.71;56.10;100395.03;702401;28;11117;-62
2021/06/22 00:16:52;;;;;;;5.20;4.78;;;;;;;24.72;56.55;100391.97;701414;28;22395;-62
2021/06/22 00:17:14;;;;;;;5.18;4.68;;;;;;;24.73;56.07;100388.09;701356;28;46408;-62
2021/06/22 00:17:35;;;;;;;5.23;4.73;;;;;;;24.72;56.34;100391.13;700809;28;46662;-62
2021/06/22 00:17:56;;;;;;;5.20;4.50;;;;;;;24.71;56.20;100393.06;700890;28;46087;-61
2021/06/22 00:18:18;;;;;;;5.47;4.55;;;;;;;24.70;56.20;100387.84;701943;28;21568;-62
2021/06/22 00:18:41;;;;;;;6.20;4.70;;;;;;;24.68;56.28;100393.63;701049;28;46955;-62
2021/06/22 00:19:02;;;;;;;5.18;4.78;;;;;;;24.69;56.13;100389.78;700175;28;66617;-62
2021/06/22 00:19:23;;;;;;;5.38;4.88;;;;;;;24.68;56.17;100390.06;701317;28;7841;-62
2021/06/22 00:19:44;;;;;;;4.90;4.50;;;;;;;24.68;56.43;100387.28;702328;28;14864;-62
2021/06/22 00:20:08;;;;;;;5.03;4.63;;;;;;;24.67;56.37;100396.69;702180;28;12629;-62
2021/06/22 00:20:29;;;;;;;5.90;4.80;;;;;;;24.66;56.52;100395.84;699095;28;69060;-62
2021/06/22 00:20:50;;;;;;;7.50;4.80;;;;;;;24.66;56.39;100393.09;700944;28;22388;-62
2021/06/22 00:21:11;;;;;;;6.78;4.68;;;;;;;24.66;56.46;100389.53;701900;28;23400;-62
2021/06/22 00:21:33;;;;;;;5.43;4.90;;;;;;;24.65;56.30;100391.44;701844;28;23353;-62
2021/06/22 00:21:54;;;;;;;7.70;5.10;;;;;;;24.64;56.61;100390.63;701264;28;39887;-62
2021/06/22 00:22:15;;;;;;;7.82;5.00;;;;;;;24.63;56.72;100390.91;701932;28;19425;-62
2021/06/22 00:22:36;;;;;;;6.63;4.82;;;;;;;24.63;56.44;100396.41;701764;28;18361;-62
2021/06/22 00:22:58;;;;;;;4.93;4.47;;;;;;;24.62;56.64;100397.50;702515;28;955;-62
2021/06/22 00:23:19;;;;;;;5.03;4.40;;;;;;;24.60;56.88;100392.28;700423;28;69525;-62
2021/06/22 00:23:40;;;;;;;5.13;4.38;;;;;;;24.59;56.60;100401.69;700115;28;46301;-62
2021/06/22 00:24:01;;;;;;;5.07;4.60;;;;;;;24.58;56.58;100391.72;700870;28;44286;-62
2021/06/22 00:24:23;;;;;;;5.90;4.60;;;;;;;24.60;56.65;100395.03;701250;28;26037;-62
2021/06/22 00:24:44;;;;;;;7.00;4.60;;;;;;;24.58;56.73;100388.16;697566;28;36624;-62
2021/06/22 00:25:08;;;;;;;8.02;5.03;;;;;;;24.60;56.63;100396.97;699598;28;1204;-62
2021/06/22 00:25:29;;;;;;;7.05;5.32;;;;;;;24.59;56.79;100387.88;697224;28;69518;-62
2021/06/22 00:25:51;;;;;;;6.53;5.18;;;;;;;24.60;56.85;100395.03;698086;28;23484;-62
2021/06/22 00:26:12;;;;;;;5.18;4.72;;;;;;;24.60;56.96;100391.44;697455;28;46823;-62
2021/06/22 00:26:33;;;;;;;5.13;4.40;;;;;;;24.60;56.87;100391.44;699719;28;22924;-62
2021/06/22 00:26:54;;;;;;;7.40;4.45;;;;;;;24.60;56.77;100396.97;700603;28;20785;-62
2021/06/22 00:27:16;;;;;;;7.88;4.85;;;;;;;24.61;57.01;100390.34;701795;28;14934;-62
2021/06/22 00:27:38;;;;;;;7.93;4.88;;;;;;;24.59;56.95;100396.16;700700;28;47210;-62
2021/06/22 00:27:59;;;;;;;7.13;4.63;;;;;;;24.60;56.93;100400.56;701074;28;47178;-62
2021/06/22 00:28:20;;;;;;;6.30;4.95;;;;;;;24.60;56.58;100394.22;701143;28;18511;-62
2021/06/22 00:28:41;;;;;;;6.78;4.90;;;;;;;24.60;57.01;100395.03;702097;28;22478;-62
2021/06/22 00:29:04;;;;;;;5.30;4.70;;;;;;;24.57;56.85;100394.78;702058;28;8637;-62
2021/06/22 00:29:26;;;;;;;5.15;4.68;;;;;;;24.58;56.75;100397.25;698497;28;62842;-62
2021/06/22 00:29:57;;;;;;;6.63;4.97;;;;;;;24.59;56.87;100392.53;696929;28;121534;-62
2021/06/22 00:30:20;;;;;;;6.95;4.97;;;;;;;24.57;56.70;100392.81;701127;28;43723;-62
2021/06/22 00:30:42;;;;;;;5.50;5.00;;;;;;;24.56;56.95;100398.59;700851;28;46314;-62
2021/06/22 00:31:03;;;;;;;5.15;4.70;;;;;;;24.53;57.01;100393.63;700808;28;47094;-62
2021/06/22 00:31:24;;;;;;;5.68;4.57;;;;;;;24.50;56.94;100392.28;701806;28;23492;-62
2021/06/22 00:31:45;;;;;;;5.63;4.82;;;;;;;24.50;56.85;100386.75;702087;28;17027;-62
2021/06/22 00:32:06;;;;;;;6.38;4.85;;;;;;;24.50;56.87;100386.75;701865;28;16633;-62
2021/06/22 00:32:27;;;;;;;5.80;5.18;;;;;;;24.49;57.15;100389.78;700930;28;23375;-62
2021/06/22 00:32:50;;;;;;;6.10;4.93;;;;;;;24.46;57.22;100388.41;700991;28;21176;-62
2021/06/22 00:33:13;;;;;;;6.95;4.85;;;;;;;24.46;57.06;100394.75;700759;28;59410;-61
2021/06/22 00:33:34;;;;;;;6.93;4.97;;;;;;;24.44;57.13;100396.97;700504;28;46394;-62
2021/06/22 00:33:57;;;;;;;5.93;5.18;;;;;;;24.43;57.16;100398.06;700956;28;44435;-62
2021/06/22 00:34:20;;;;;;;6.88;4.72;;;;;;;24.43;57.17;100395.31;701754;28;14928;-62
2021/06/22 00:34:41;;;;;;;6.05;4.75;;;;;;;24.43;57.50;100394.47;700110;28;23440;-62
2021/06/22 00:35:03;;;;;;;6.30;5.15;;;;;;;24.43;57.21;100394.47;702089;28;23613;-62
2021/06/22 00:35:24;;;;;;;6.38;5.13;;;;;;;24.42;57.50;100398.34;701205;28;42254;-62
2021/06/22 00:35:46;;;;;;;7.47;4.70;;;;;;;24.42;57.35;100398.34;701851;28;23635;-62
2021/06/22 00:36:08;;;;;;;5.25;4.80;;;;;;;24.42;57.19;100404.72;701767;28;896;-62
2021/06/22 00:36:29;;;;;;;5.82;4.80;;;;;;;24.43;57.39;100406.34;701409;28;22620;-62
2021/06/22 00:36:50;;;;;;;7.72;5.05;;;;;;;24.43;57.49;100400.81;702421;28;21445;-62
2021/06/22 00:37:14;;;;;;;5.10;4.70;;;;;;;24.43;57.34;100400.81;701252;28;22415;-62
2021/06/22 00:37:36;;;;;;;5.43;4.47;;;;;;;24.44;57.10;100402.47;698874;28;92447;-62
2021/06/22 00:37:57;;;;;;;7.72;5.00;;;;;;;24.45;57.23;100404.16;701442;28;43703;-62
2021/06/22 00:38:18;;;;;;;6.78;4.93;;;;;;;24.45;57.16;100395.03;702475;28;22485;-62
2021/06/22 00:38:41;;;;;;;6.85;5.10;;;;;;;24.46;57.19;100403.03;703283;28;980;-62
2021/06/22 00:39:04;;;;;;;5.50;4.80;;;;;;;24.46;57.31;100400.25;701459;28;23586;-62
2021/06/22 00:39:26;;;;;;;5.72;5.22;;;;;;;24.44;57.25;100402.47;700021;28;66824;-62
2021/06/22 00:39:47;;;;;;;5.68;5.00;;;;;;;24.43;57.27;100400.81;700620;28;45933;-62
2021/06/22 00:40:09;;;;;;;5.90;5.30;;;;;;;24.43;57.38;100403.59;697720;28;46404;-62
2021/06/22 00:40:33;;;;;;;5.68;5.15;;;;;;;24.41;57.46;100400.28;695295;28;136435;-62
2021/06/22 00:40:56;;;;;;;5.43;4.93;;;;;;;24.41;57.53;100396.69;698180;28;21216;-62
2021/06/22 00:41:17;;;;;;;7.30;5.10;;;;;;;24.40;57.41;100401.38;696430;28;44162;-62
2021/06/22 00:41:38;;;;;;;7.68;4.95;;;;;;;24.40;57.47;100393.09;695303;28;21564;-62
2021/06/22 00:42:00;;;;;;;5.25;4.75;;;;;;;24.41;57.42;100402.22;691353;28;45031;-62
2021/06/22 00:42:22;;;;;;;6.43;4.85;;;;;;;24.39;57.65;100396.97;693082;28;45315;-62
2021/06/22 00:42:44;;;;;;;8.20;5.07;;;;;;;24.38;57.44;100397.25;693801;28;23480;-62
2021/06/22 00:43:06;;;;;;;7.07;5.40;;;;;;;24.35;57.51;100401.38;694780;28;30499;-62
2021/06/22 00:43:27;;;;;;;5.70;5.10;;;;;;;24.35;57.57;100393.13;692274;28;44358;-62
2021/06/22 00:43:49;;;;;;;5.50;5.00;;;;;;;24.34;57.60;100397.00;694971;28;22454;-62
2021/06/22 00:44:10;;;;;;;5.55;5.00;;;;;;;24.33;57.64;100406.38;693287;28;43995;-62
2021/06/22 00:44:32;;;;;;;6.38;5.22;;;;;;;24.32;57.84;100401.94;690649;28;44994;-62
2021/06/22 00:44:57;;;;;;;7.72;5.18;;;;;;;24.34;57.79;100404.44;692497;28;23482;-62
2021/06/22 00:45:27;;;;;;;5.75;5.07;;;;;;;24.33;57.90;100405.56;687835;28;138713;-62
2021/06/22 00:45:54;;;;;;;5.65;5.13;;;;;;;24.33;57.83;100402.78;690778;28;60307;-62
2021/06/22 00:46:16;;;;;;;6.57;5.30;;;;;;;24.32;57.73;100393.66;691349;28;39017;-62
2021/06/22 00:46:38;;;;;;;5.72;5.25;;;;;;;24.32;57.93;100406.66;694066;28;22386;-62
2021/06/22 00:46:59;;;;;;;5.75;5.15;;;;;;;24.32;57.85;100403.88;695899;28;46355;-62
2021/06/22 00:47:21;;;;;;;5.95;5.25;;;;;;;24.32;57.81;100412.97;696404;28;1753;-62
2021/06/22 00:47:43;;;;;;;5.93;5.30;;;;;;;24.33;57.73;100411.88;697042;28;39934;-62
2021/06/22 00:48:06;;;;;;;5.57;5.07;;;;;;;24.33;57.71;100413.81;696517;28;46342;-62
2021/06/22 00:48:28;;;;;;;5.55;5.05;;;;;;;24.34;57.74;100415.47;697039;28;70414;-62
2021/06/22 00:48:49;;;;;;;5.68;5.03;;;;;;;24.33;58.04;100414.66;695821;28;23488;-62
2021/06/22 00:49:11;;;;;;;6.63;4.88;;;;;;;24.32;58.03;100409.41;692526;28;22375;-62
2021/06/22 00:49:35;;;;;;;5.60;5.10;;;;;;;24.34;57.92;100419.06;689842;28;115029;-62
2021/06/22 00:49:58;;;;;;;5.73;5.13;;;;;;;24.34;57.93;100412.69;690366;28;45279;-62
2021/06/22 00:50:20;;;;;;;7.50;5.18;;;;;;;24.36;58.00;100418.78;689433;28;92342;-62
2021/06/22 00:50:49;;;;;;;5.93;5.03;;;;;;;24.34;58.17;100416.31;690378;28;134013;-62
2021/06/22 00:51:12;;;;;;;8.23;5.38;;;;;;;24.36;57.71;100416.03;693626;28;46687;-62
2021/06/22 00:51:34;;;;;;;9.88;5.78;;;;;;;24.35;57.98;100415.19;692271;28;45480;-62
2021/06/22 00:51:56;;;;;;;7.20;5.65;;;;;;;24.36;57.99;100414.09;689325;28;70078;-62
2021/06/22 00:52:26;;;;;;;6.18;5.10;;;;;;;24.36;57.84;100418.78;689167;28;132769;-62
2021/06/22 00:52:48;;;;;;;6.15;5.55;;;;;;;24.36;58.03;100411.34;688782;28;90739;-62
2021/06/22 00:53:11;;;;;;;6.50;5.00;;;;;;;24.36;58.15;100407.75;689323;28;43671;-62
2021/06/22 00:53:34;;;;;;;8.13;5.25;;;;;;;24.38;57.93;100416.56;689187;28;92147;-62
2021/06/22 00:53:56;;;;;;;6.63;4.97;;;;;;;24.39;58.06;100418.22;691036;28;46436;-62
2021/06/22 00:54:17;;;;;;;6.88;5.20;;;;;;;24.39;57.83;100409.94;688386;28;45205;-62
2021/06/22 00:54:39;;;;;;;8.02;5.35;;;;;;;24.40;57.93;100414.34;690375;28;22397;-62
2021/06/22 00:55:02;;;;;;;6.18;5.57;;;;;;;24.39;57.84;100413.53;692338;28;35458;-62
2021/06/22 00:55:31;;;;;;;6.95;5.68;;;;;;;24.39;57.86;100409.94;691670;28;60657;-62
2021/06/22 00:55:55;;;;;;;6.40;5.22;;;;;;;24.40;58.06;100411.59;689752;28;131232;-62
2021/06/22 00:56:30;;;;;;;5.55;5.10;;;;;;;24.40;58.08;100408.84;692370;28;138453;-62
2021/06/22 00:56:51;;;;;;;5.72;5.22;;;;;;;24.40;57.96;100411.59;693658;28;41858;-62
2021/06/22 00:57:14;;;;;;;7.60;5.30;;;;;;;24.40;57.84;100417.94;694275;28;24184;-62
2021/06/22 00:57:36;;;;;;;6.78;5.20;;;;;;;24.40;57.93;100415.19;690598;28;92159;-62
2021/06/22 00:57:59;;;;;;;6.63;5.30;;;;;;;24.39;57.90;100419.06;693632;28;23488;-62
2021/06/22 00:58:22;;;;;;;5.35;4.85;;;;;;;24.40;58.08;100415.19;687920;28;116095;-62
2021/06/22 00:58:48;;;;;;;5.68;5.03;;;;;;;24.42;57.83;100414.91;685908;28;138103;-62
2021/06/22 00:59:10;;;;;;;6.10;4.80;;;;;;;24.43;57.98;100416.56;689652;28;37646;-62
2021/06/22 00:59:33;;;;;;;7.60;5.25;;;;;;;24.44;57.99;100427.31;692897;28;22557;-62
2021/06/22 00:59:54;;;;;;;6.88;5.18;;;;;;;24.43;57.88;100422.91;691745;28;70257;-62
2021/06/22 01:00:16;;;;;;;8.13;5.57;;;;;;;24.44;57.89;100424.56;692898;28;22484;-62
2021/06/22 01:00:40;;;;;;;5.97;5.40;;;;;;;24.44;57.87;100423.75;688051;28;103243;-62
2021/06/22 01:01:02;;;;;;;6.10;5.37;;;;;;;24.45;58.06;100419.88;691389;28;47421;-62
2021/06/22 01:01:24;;;;;;;5.80;5.20;;;;;;;24.46;58.00;100427.88;692134;28;59874;-62
2021/06/22 01:01:46;;;;;;;6.18;5.57;;;;;;;24.46;58.16;100430.63;691279;28;54069;-62
2021/06/22 01:02:08;;;;;;;7.35;5.47;;;;;;;24.46;57.81;100432.56;692988;28;23494;-62
2021/06/22 01:02:30;;;;;;;7.65;5.70;;;;;;;24.46;58.15;100427.88;694150;28;45238;-62
2021/06/22 01:02:53;;;;;;;6.50;5.50;;;;;;;24.46;57.69;100440.84;694433;28;32075;-62
2021/06/22 01:03:14;;;;;;;5.90;5.20;;;;;;;24.46;57.94;100435.34;692693;28;41097;-62
2021/06/22 01:03:40;;;;;;;6.53;5.23;;;;;;;24.44;58.14;100435.59;691506;28;138234;-62
2021/06/22 01:04:05;;;;;;;6.68;5.25;;;;;;;24.43;58.17;100433.94;695906;28;61635;-62
2021/06/22 01:04:32;;;;;;;6.18;5.20;;;;;;;24.44;57.91;100438.38;693482;28;87882;-62
2021/06/22 01:05:13;;;;;;;8.48;5.82;;;;;;;24.42;58.01;100440.59;691185;28;127816;-62
2021/06/22 01:05:45;;;;;;;8.20;5.88;;;;;;;24.41;58.33;100429.81;690258;28;158989;-62
2021/06/22 01:06:09;;;;;;;6.47;5.85;;;;;;;24.42;58.46;100434.22;693699;28;46497;-62
2021/06/22 01:06:35;;;;;;;8.20;5.60;;;;;;;24.39;58.37;100430.09;692716;28;136576;-62
2021/06/22 01:07:04;;;;;;;10.30;5.78;;;;;;;24.40;58.17;100433.69;692440;28;152508;-62
2021/06/22 01:07:25;;;;;;;9.02;5.78;;;;;;;24.41;58.46;100432.59;697631;28;32455;-62
2021/06/22 01:07:47;;;;;;;6.05;5.45;;;;;;;24.41;58.27;100438.09;698199;28;45558;-62
2021/06/22 01:08:11;;;;;;;7.78;5.28;;;;;;;24.40;58.48;100428.97;701752;28;22393;-62
2021/06/22 01:08:33;;;;;;;5.68;5.00;;;;;;;24.41;58.26;100438.09;700050;28;90781;-62
2021/06/22 01:08:54;;;;;;;6.03;5.20;;;;;;;24.42;58.23;100436.97;698624;28;33575;-62
2021/06/22 01:09:15;;;;;;;7.13;5.20;;;;;;;24.41;58.27;100441.69;695676;28;21656;-62
2021/06/22 01:09:36;;;;;;;5.65;5.20;;;;;;;24.41;58.33;100441.69;693163;28;21508;-62
2021/06/22 01:09:57;;;;;;;5.88;5.30;;;;;;;24.42;58.25;100448.03;692821;28;23313;-61
2021/06/22 01:10:20;;;;;;;8.07;5.70;;;;;;;24.40;58.53;100451.06;691201;28;22285;-62
2021/06/22 01:10:41;;;;;;;7.22;5.65;;;;;;;24.41;58.10;100444.44;689873;28;70182;-61
2021/06/22 01:11:03;;;;;;;6.87;5.30;;;;;;;24.41;58.30;100446.38;692211;28;44368;-62
2021/06/22 01:11:25;;;;;;;8.20;5.35;;;;;;;24.41;58.43;100444.44;694378;28;29554;-62
2021/06/22 01:11:47;;;;;;;7.65;5.10;;;;;;;24.40;58.42;100451.06;696571;28;46306;-62
2021/06/22 01:12:09;;;;;;;7.28;4.88;;;;;;;24.41;58.30;100449.97;697599;28;23451;-62
2021/06/22 01:12:30;;;;;;;6.43;5.57;;;;;;;24.41;58.44;100440.88;698002;28;69209;-62
2021/06/22 01:12:53;;;;;;;8.38;5.15;;;;;;;24.41;58.16;100441.69;699260;28;3074;-62
2021/06/22 01:13:15;;;;;;;7.87;5.30;;;;;;;24.42;58.25;100442.50;694967;28;63201;-62
2021/06/22 01:13:37;;;;;;;7.15;5.88;;;;;;;24.42;58.21;100439.75;693122;28;67526;-62
2021/06/22 01:13:58;;;;;;;6.18;5.57;;;;;;;24.41;58.34;100447.19;697567;28;22417;-62
2021/06/22 01:14:24;;;;;;;6.57;5.38;;;;;;;24.43;58.12;100444.97;695402;28;61604;-62
2021/06/22 01:14:46;;;;;;;6.13;5.40;;;;;;;24.42;58.09;100448.88;692636;28;45579;-62
2021/06/22 01:15:14;;;;;;;5.47;4.97;;;;;;;24.44;58.02;100451.34;693102;28;45203;-62
2021/06/22 01:15:36;;;;;;;5.95;5.35;;;;;;;24.44;58.29;100445.84;689019;28;114964;-62
2021/06/22 01:15:59;;;;;;;6.13;5.25;;;;;;;24.43;58.26;100455.22;690938;28;92184;-62
2021/06/22 01:16:22;;;;;;;7.65;5.55;;;;;;;24.42;58.09;100456.31;696126;28;33565;-62
2021/06/22 01:16:45;;;;;;;5.85;5.07;;;;;;;24.42;58.18;100448.88;696876;28;62590;-62
2021/06/22 01:17:07;;;;;;;5.80;5.10;;;;;;;24.44;58.02;100451.34;695132;28;44410;-62
2021/06/22 01:17:28;;;;;;;7.88;5.25;;;;;;;24.42;58.23;100453.53;696147;28;46561;-62
2021/06/22 01:18:00;;;;;;;9.60;5.72;;;;;;;24.42;58.18;100459.06;698001;28;61061;-62
2021/06/22 01:18:24;;;;;;;8.57;5.68;;;;;;;24.41;58.09;100461.00;692493;28;134640;-62
2021/06/22 01:19:05;;;;;;;6.13;5.45;;;;;;;24.42;58.17;100457.16;694251;28;133481;-62
2021/06/22 01:19:43;;;;;;;6.05;5.22;;;;;;;24.41;58.04;100457.44;691529;28;160665;-62
2021/06/22 01:20:06;;;;;;;8.68;5.32;;;;;;;24.42;58.08;100450.78;691913;28;105160;-62
2021/06/22 01:20:36;;;;;;;6.20;5.45;;;;;;;24.42;57.80;100457.16;693432;28;136707;-62
2021/06/22 01:20:59;;;;;;;5.90;5.38;;;;;;;24.42;57.78;100454.38;695044;28;115245;-62
2021/06/22 01:21:28;;;;;;;8.02;5.68;;;;;;;24.42;57.84;100457.16;695011;28;135842;-62
2021/06/22 01:21:57;;;;;;;6.20;5.60;;;;;;;24.41;57.80;100457.44;694704;28;138184;-61
2021/06/22 01:22:31;;;;;;;6.90;5.32;;;;;;;24.41;57.76;100461.00;695091;28;126316;-62
2021/06/22 01:22:59;;;;;;;7.35;5.35;;;;;;;24.42;58.15;100456.31;698343;28;61064;-62
2021/06/22 01:23:21;;;;;;;5.70;5.05;;;;;;;24.40;57.69;100455.75;694085;28;92375;-62
2021/06/22 01:23:42;;;;;;;6.15;5.53;;;;;;;24.41;57.84;100457.44;696679;28;24387;-62
2021/06/22 01:24:06;;;;;;;7.80;5.40;;;;;;;24.40;57.71;100455.75;695320;28;33889;-61
2021/06/22 01:24:29;;;;;;;7.50;5.30;;;;;;;24.42;57.78;100459.06;697097;28;50439;-62
2021/06/22 01:24:52;;;;;;;5.47;4.80;;;;;;;24.42;57.91;100453.53;696990;28;68391;-62
2021/06/22 01:25:16;;;;;;;5.60;5.10;;;;;;;24.42;57.59;100451.63;696055;28;79393;-62
2021/06/22 01:25:37;;;;;;;6.73;5.57;;;;;;;24.42;57.75;100459.06;697955;28;61376;-62
2021/06/22 01:26:01;;;;;;;5.70;5.20;;;;;;;24.42;57.72;100459.91;698416;28;16848;-62
2021/06/22 01:26:23;;;;;;;9.70;5.82;;;;;;;24.42;57.73;100456.31;698492;28;37826;-62
2021/06/22 01:26:47;;;;;;;9.43;5.55;;;;;;;24.42;57.89;100454.38;696578;28;22482;-62
2021/06/22 01:27:11;;;;;;;6.45;5.30;;;;;;;24.42;57.88;100451.63;696303;28;38429;-61
2021/06/22 01:27:32;;;;;;;5.80;5.20;;;;;;;24.41;57.90;100452.72;693563;28;42110;-61
2021/06/22 01:27:54;;;;;;;6.13;5.53;;;;;;;24.41;57.76;100452.72;695392;28;20507;-61
2021/06/22 01:28:16;;;;;;;6.47;5.22;;;;;;;24.42;57.81;100443.34;694313;28;13376;-61
2021/06/22 01:28:41;;;;;;;7.03;5.65;;;;;;;24.42;57.73;100448.88;689875;28;115148;-62
2021/06/22 01:29:08;;;;;;;7.25;5.57;;;;;;;24.42;57.82;100454.38;691124;28;138923;-62
2021/06/22 01:29:30;;;;;;;8.38;5.22;;;;;;;24.41;57.90;100444.44;694287;28;46425;-62
2021/06/22 01:29:52;;;;;;;6.07;5.25;;;;;;;24.42;58.02;100445.25;695089;28;46329;-62
2021/06/22 01:30:17;;;;;;;7.57;5.45;;;;;;;24.41;57.80;100454.66;696689;28;14874;-62
2021/06/22 01:30:56;;;;;;;6.20;5.35;;;;;;;24.43;57.75;100449.69;693031;28;98788;-62
2021/06/22 01:31:18;;;;;;;6.32;5.72;;;;;;;24.41;57.69;100452.72;696429;28;23181;-62
2021/06/22 01:31:42;;;;;;;6.28;5.78;;;;;;;24.42;57.68;100448.03;692700;28;115177;-62
2021/06/22 01:32:07;;;;;;;6.50;5.57;;;;;;;24.41;57.93;100449.16;696522;28;19943;-62
2021/06/22 01:32:28;;;;;;;7.38;5.50;;;;;;;24.40;57.84;100451.06;690004;28;115028;-62
2021/06/22 01:32:51;;;;;;;8.90;5.30;;;;;;;24.40;57.86;100456.56;693891;28;46481;-62
2021/06/22 01:33:12;;;;;;;7.38;5.38;;;;;;;24.42;57.82;100450.78;691571;28;45298;-62
2021/06/22 01:33:34;;;;;;;7.53;5.80;;;;;;;24.42;57.75;100448.88;689542;28;45424;-62
2021/06/22 01:33:55;;;;;;;6.75;5.85;;;;;;;24.40;57.66;100441.97;689240;28;22442;-62
2021/06/22 01:34:22;;;;;;;8.55;5.57;;;;;;;24.41;57.62;100452.72;683976;28;115206;-62
2021/06/22 01:34:44;;;;;;;7.47;5.70;;;;;;;24.40;57.72;100442.78;688238;28;69428;-62
2021/06/22 01:35:06;;;;;;;6.15;5.55;;;;;;;24.40;57.60;100447.47;692280;28;15276;-61
2021/06/22 01:35:28;;;;;;;7.05;5.80;;;;;;;24.38;57.55;100445.00;689034;28;69061;-62
2021/06/22 01:35:50;;;;;;;7.50;5.80;;;;;;;24.37;57.82;100446.09;693770;28;21322;-62
2021/06/22 01:36:13;;;;;;;6.70;5.72;;;;;;;24.35;57.56;100441.97;692398;28;69518;-62
2021/06/22 01:36:35;;;;;;;5.93;5.43;;;;;;;24.37;57.83;100448.84;693381;28;40944;-62
2021/06/22 01:36:58;;;;;;;6.35;5.82;;;;;;;24.36;57.96;100443.63;692854;28;60709;-62
2021/06/22 01:37:25;;;;;;;7.30;5.60;;;;;;;24.35;57.80;100439.22;692137;28;136202;-62
2021/06/22 01:37:49;;;;;;;8.05;5.40;;;;;;;24.34;58.01;100443.91;695575;28;90778;-62
2021/06/22 01:38:13;;;;;;;9.98;5.47;;;;;;;24.33;57.94;100445.00;694599;28;114800;-62
2021/06/22 01:38:35;;;;;;;7.25;5.28;;;;;;;24.32;58.02;100442.53;698991;28;23487;-62
2021/06/22 01:38:58;;;;;;;6.38;5.40;;;;;;;24.31;57.86;100444.47;698754;28;22386;-62
2021/06/22 01:39:19;;;;;;;6.45;5.47;;;;;;;24.31;57.79;100447.22;695183;28;90112;-61
2021/06/22 01:39:41;;;;;;;6.03;5.38;;;;;;;24.31;58.09;100444.47;695848;28;45415;-61
2021/06/22 01:40:04;;;;;;;8.35;5.70;;;;;;;24.31;58.00;100438.09;696623;28;22471;-62
2021/06/22 01:40:28;;;;;;;7.05;5.28;;;;;;;24.30;58.03;100445.56;694353;28;90481;-62
2021/06/22 01:40:50;;;;;;;8.63;5.53;;;;;;;24.28;58.04;100437.56;694526;28;66743;-62
2021/06/22 01:41:13;;;;;;;6.05;5.45;;;;;;;24.30;58.01;100442.78;693021;28;77799;-62
2021/06/22 01:41:36;;;;;;;6.97;5.30;;;;;;;24.28;58.18;100443.06;693746;28;69450;-62
2021/06/22 01:41:57;;;;;;;6.90;5.20;;;;;;;24.30;58.13;100453.84;692350;28;46417;-62
2021/06/22 01:42:20;;;;;;;5.88;5.30;;;;;;;24.29;58.27;100452.16;689244;28;47774;-62
2021/06/22 01:42:44;;;;;;;5.70;5.10;;;;;;;24.31;57.93;100446.38;685071;28;121328;-62
2021/06/22 01:43:07;;;;;;;6.03;5.05;;;;;;;24.31;57.91;100443.63;687784;28;69480;-62
2021/06/22 01:43:28;;;;;;;8.18;5.60;;;;;;;24.29;58.09;100447.50;689822;28;11882;-62
2021/06/22 01:43:51;;;;;;;6.07;5.47;;;;;;;24.30;58.13;100451.06;692182;28;18449;-62
2021/06/22 01:44:13;;;;;;;6.32;5.47;;;;;;;24.31;58.06;100449.13;692311;28;69438;-62
2021/06/22 01:44:35;;;;;;;7.65;5.72;;;;;;;24.30;58.00;100453.84;693055;28;46265;-62
2021/06/22 01:44:57;;;;;;;8.70;5.82;;;;;;;24.31;57.77;100454.66;692515;28;45362;-61
2021/06/22 01:45:19;;;;;;;6.60;5.90;;;;;;;24.29;57.90;100452.16;693875;28;46498;-62
2021/06/22 01:45:41;;;;;;;6.50;5.90;;;;;;;24.28;58.24;100451.34;696527;28;21525;-62
2021/06/22 01:46:03;;;;;;;5.75;5.25;;;;;;;24.27;58.02;100460.72;694793;28;69426;-62
2021/06/22 01:46:24;;;;;;;5.47;4.97;;;;;;;24.27;58.06;100448.88;697678;28;21538;-62
2021/06/22 01:46:45;;;;;;;7.07;5.30;;;;;;;24.27;58.04;100446.94;697919;28;1584;-62
2021/06/22 01:47:07;;;;;;;7.18;5.70;;;;;;;24.28;58.07;100447.78;698632;28;23412;-62
2021/06/22 01:47:29;;;;;;;5.97;5.45;;;;;;;24.27;58.04;100448.88;696776;28;68475;-62